Time;durP1;ratioP1;P1;durP2;ratioP2;P2;SDS_P1;SDS_P2;PMS_P1;PMS_P2;Temp;Humidity;BMP_temperature;BMP_pressure;BME280_temperature;BME280_humidity;BME280_pressure;Samples;Min_cycle;Max_cycle;Signal;HPM_P1;HPM_P2
2021/12/13 00:00:29;;;;;;;62.33;14.68;;;;;;;1.79;94.81;102295.34;5041117;28;20090;-52
2021/12/13 00:03:16;;;;;;;66.13;16.58;;;;;;;1.74;95.06;102289.69;5039133;28;20029;-52
2021/12/13 00:05:48;;;;;;;95.97;20.30;;;;;;;1.68;95.57;102285.84;5039039;28;20020;-52
2021/12/13 00:08:20;;;;;;;77.47;14.93;;;;;;;1.66;95.79;102295.75;5036509;28;20025;-50
2021/12/13 00:10:52;;;;;;;38.00;12.95;;;;;;;1.70;95.82;102288.34;5042040;28;20394;-50
2021/12/13 00:13:26;;;;;;;34.25;12.32;;;;;;;1.77;95.90;102299.94;5042108;28;20033;-51
2021/12/13 00:16:00;;;;;;;37.30;13.50;;;;;;;1.77;96.77;102300.78;5038404;28;20052;-52
2021/12/13 00:18:30;;;;;;;30.20;12.27;;;;;;;1.87;96.01;102298.06;5036733;28;20094;-53
2021/12/13 00:21:23;;;;;;;45.15;12.50;;;;;;;1.93;95.75;102307.19;5040689;28;20283;-51
2021/12/13 00:24:04;;;;;;;37.15;11.95;;;;;;;1.99;95.08;102299.50;5039451;28;20025;-52
2021/12/13 00:26:34;;;;;;;42.47;12.27;;;;;;;2.05;94.98;102298.03;5034433;28;20571;-50
2021/12/13 00:29:12;;;;;;;38.05;12.32;;;;;;;2.06;94.45;102294.41;5038727;28;20028;-52
2021/12/13 00:32:15;;;;;;;68.72;16.27;;;;;;;2.05;94.47;102300.69;5039919;28;20025;-53
2021/12/13 00:34:52;;;;;;;52.03;12.98;;;;;;;2.05;94.24;102301.50;4999492;28;20511;-50
2021/12/13 00:37:30;;;;;;;33.97;12.18;;;;;;;2.08;93.80;102297.72;5039847;28;20036;-51
2021/12/13 00:40:04;;;;;;;27.65;11.05;;;;;;;2.10;93.84;102303.69;5039550;28;20558;-52
2021/12/13 00:42:35;;;;;;;32.30;12.30;;;;;;;2.11;93.65;102297.41;5038561;28;20028;-52
2021/12/13 00:45:06;;;;;;;37.90;12.55;;;;;;;2.13;93.17;102298.91;5036453;28;20035;-50
2021/12/13 00:47:35;;;;;;;31.85;10.95;;;;;;;2.15;93.25;102301.41;5036886;28;20247;-50
2021/12/13 00:50:21;;;;;;;30.58;10.07;;;;;;;2.12;93.31;102299.06;5040584;28;20064;-53
2021/12/13 00:52:49;;;;;;;36.20;11.30;;;;;;;2.17;93.08;102298.63;5039954;28;20412;-50
2021/12/13 00:55:29;;;;;;;31.60;11.68;;;;;;;2.19;92.78;102299.31;5036648;28;20112;-50
2021/12/13 00:58:14;;;;;;;59.88;12.45;;;;;;;2.19;92.78;102307.22;5038523;28;20430;-50
2021/12/13 01:00:44;;;;;;;32.40;11.97;;;;;;;2.19;92.87;102309.88;5038148;28;20025;-52
2021/12/13 01:03:20;;;;;;;32.00;10.40;;;;;;;2.21;92.79;102311.38;5037285;28;20063;-51
2021/12/13 01:06:07;;;;;;;32.58;10.70;;;;;;;2.22;92.71;102312.22;5039092;28;20036;-52
2021/12/13 01:09:01;;;;;;;30.63;11.25;;;;;;;2.24;92.79;102320.81;5043527;28;20500;-50
2021/12/13 01:11:50;;;;;;;31.52;9.95;;;;;;;2.24;92.59;102328.75;5034853;28;20104;-52
2021/12/13 01:14:39;;;;;;;35.78;11.68;;;;;;;2.26;92.61;102327.59;5041129;28;20028;-52
2021/12/13 01:17:25;;;;;;;39.08;11.43;;;;;;;2.27;92.59;102333.72;5039232;28;20036;-51
2021/12/13 01:20:09;;;;;;;29.27;12.00;;;;;;;2.27;92.82;102344.31;5035943;28;20025;-51
2021/12/13 01:22:56;;;;;;;33.47;11.18;;;;;;;2.30;92.64;102346.63;5043975;28;20082;-52
2021/12/13 01:28:38;;;;;;;61.13;13.23;;;;;;;2.28;93.26;102344.16;5025452;28;20039;-51
2021/12/13 01:31:12;;;;;;;61.90;13.40;;;;;;;2.26;93.70;102340.00;5039239;28;20033;-52
2021/12/13 01:33:43;;;;;;;34.90;12.30;;;;;;;2.21;93.21;102351.03;5040288;28;20358;-50
2021/12/13 01:36:13;;;;;;;33.03;10.90;;;;;;;2.21;93.76;102343.13;5038801;28;20075;-49
2021/12/13 01:38:46;;;;;;;67.97;13.25;;;;;;;2.22;93.99;102344.78;5038468;28;20373;-52
2021/12/13 01:41:17;;;;;;;111.10;16.90;;;;;;;2.24;94.55;102344.63;5038756;28;20024;-50
2021/12/13 01:43:49;;;;;;;65.38;14.70;;;;;;;2.16;95.20;102357.78;5040972;28;20036;-53
2021/12/13 01:46:16;;;;;;;77.63;14.15;;;;;;;2.16;94.87;102347.22;5040820;28;20037;-49
2021/12/13 01:48:46;;;;;;;114.75;18.88;;;;;;;2.15;95.32;102356.09;5041067;28;20108;-49
2021/12/13 01:51:16;;;;;;;50.45;12.15;;;;;;;2.13;95.17;102362.38;5038898;28;20029;-52
2021/12/13 01:53:49;;;;;;;98.70;16.67;;;;;;;2.19;95.06;102362.75;5038853;28;20052;-49
2021/12/13 01:59:17;;;;;;;53.92;13.40;;;;;;;2.26;95.03;102354.06;5035671;28;20362;-49
2021/12/13 02:01:44;;;;;;;35.05;11.40;;;;;;;2.31;94.73;102359.69;5034922;28;20048;-53
2021/12/13 02:04:14;;;;;;;50.67;13.57;;;;;;;2.32;94.85;102353.41;5040370;28;20476;-49
2021/12/13 02:06:50;;;;;;;39.95;12.68;;;;;;;2.35;94.79;102369.00;5038938;28;20108;-49
2021/12/13 02:09:30;;;;;;;40.83;12.55;;;;;;;2.37;94.87;102376.78;5038579;28;20039;-52
2021/12/13 02:11:59;;;;;;;49.33;12.07;;;;;;;2.39;94.53;102365.06;5038882;28;20427;-49
2021/12/13 02:14:29;;;;;;;49.10;14.48;;;;;;;2.40;94.71;102374.66;5032779;28;20025;-49
2021/12/13 02:17:10;;;;;;;45.20;12.57;;;;;;;2.40;95.00;102368.53;5040455;28;20116;-52
2021/12/13 02:19:50;;;;;;;47.20;11.95;;;;;;;2.37;94.79;102363.56;5042125;28;20036;-51
2021/12/13 02:22:30;;;;;;;43.13;12.20;;;;;;;2.39;94.44;102365.06;5039216;28;20025;-49
2021/12/13 02:24:59;;;;;;;35.42;11.07;;;;;;;2.41;94.51;102363.09;5039926;28;20025;-52
2021/12/13 02:27:29;;;;;;;31.92;11.05;;;;;;;2.42;94.43;102359.47;5036858;28;20504;-49
2021/12/13 02:29:59;;;;;;;29.38;11.05;;;;;;;2.43;94.70;102363.75;5042777;28;20469;-50
2021/12/13 02:32:28;;;;;;;32.97;10.43;;;;;;;2.44;94.85;102367.25;5039866;28;20036;-51
2021/12/13 02:34:57;;;;;;;32.45;10.07;;;;;;;2.46;94.25;102367.91;5045747;28;20017;-50
2021/12/13 02:37:25;;;;;;;29.98;9.38;;;;;;;2.47;94.46;102366.09;5039163;28;20033;-49
2021/12/13 02:39:56;;;;;;;33.10;11.35;;;;;;;2.48;94.25;102371.22;5039355;28;20024;-49
2021/12/13 02:42:23;;;;;;;33.95;10.25;;;;;;;2.48;94.34;102358.00;5036130;28;20033;-49
2021/12/13 02:44:54;;;;;;;35.47;10.70;;;;;;;2.49;94.25;102369.41;5038754;28;20545;-50
2021/12/13 02:47:38;;;;;;;35.58;11.88;;;;;;;2.46;94.15;102365.25;5042032;28;20082;-52
2021/12/13 02:50:12;;;;;;;31.15;10.52;;;;;;;2.50;94.29;102371.91;5039913;28;20032;-49
2021/12/13 02:52:41;;;;;;;52.55;13.65;;;;;;;2.52;94.20;102369.13;5039009;28;20033;-51
2021/12/13 02:55:15;;;;;;;49.72;13.18;;;;;;;2.51;94.78;102365.63;5041930;28;20029;-50
2021/12/13 02:57:51;;;;;;;58.00;14.43;;;;;;;2.48;94.98;102371.22;5036870;28;20040;-49
2021/12/13 03:00:32;;;;;;;43.08;11.88;;;;;;;2.47;95.12;102374.84;5041789;28;20051;-52
2021/12/13 03:03:00;;;;;;;40.63;11.80;;;;;;;2.48;94.82;102375.69;5038336;28;20400;-51
2021/12/13 03:05:30;;;;;;;62.67;12.80;;;;;;;2.50;94.91;102382.47;5038801;28;20056;-49
2021/12/13 03:08:00;;;;;;;32.17;9.90;;;;;;;2.53;94.29;102390.13;5041647;28;20044;-49
2021/12/13 03:10:38;;;;;;;36.33;11.23;;;;;;;2.53;94.65;102386.66;5042690;28;20036;-49
2021/12/13 03:13:04;;;;;;;54.15;12.80;;;;;;;2.55;94.74;102385.50;5039651;28;20028;-50
2021/12/13 03:15:33;;;;;;;33.60;11.63;;;;;;;2.57;94.60;102382.72;5046140;28;20384;-49
2021/12/13 03:18:00;;;;;;;34.42;10.95;;;;;;;2.59;94.38;102372.81;5039637;28;20447;-49
2021/12/13 03:20:46;;;;;;;38.95;10.52;;;;;;;2.58;94.11;102368.50;5038674;28;20036;-51
2021/12/13 03:23:17;;;;;;;25.98;10.00;;;;;;;2.60;93.96;102372.63;5040369;28;20628;-49
2021/12/13 03:26:08;;;;;;;39.08;12.38;;;;;;;2.59;94.13;102370.97;5042124;28;20025;-52
2021/12/13 03:28:46;;;;;;;34.33;10.07;;;;;;;2.58;94.77;102373.78;5039663;28;20353;-50
2021/12/13 03:31:15;;;;;;;33.90;10.25;;;;;;;2.59;94.21;102373.63;5038470;28;20279;-49
2021/12/13 03:33:48;;;;;;;26.88;8.70;;;;;;;2.60;94.58;102377.94;5038342;28;20574;-49
2021/12/13 03:36:22;;;;;;;31.45;11.25;;;;;;;2.61;94.41;102374.31;5041761;28;20059;-49
2021/12/13 03:38:54;;;;;;;24.67;9.27;;;;;;;2.63;94.26;102382.06;5038683;28;20032;-49
2021/12/13 03:41:24;;;;;;;28.92;9.90;;;;;;;2.64;94.38;102391.69;5042514;28;20029;-49
2021/12/13 03:43:53;;;;;;;37.88;10.63;;;;;;;2.63;94.94;102388.19;5041046;28;20044;-51
2021/12/13 03:46:22;;;;;;;28.60;10.48;;;;;;;2.61;94.88;102390.19;5042506;28;20063;-51
2021/12/13 03:48:50;;;;;;;33.72;12.77;;;;;;;2.58;95.53;102390.50;5041043;28;20035;-49
2021/12/13 03:51:19;;;;;;;31.50;11.68;;;;;;;2.57;95.66;102398.59;5036362;28;20029;-50
2021/12/13 03:53:49;;;;;;;29.05;11.48;;;;;;;2.55;96.19;102411.16;5041134;28;20428;-49
2021/12/13 03:56:19;;;;;;;27.85;10.70;;;;;;;2.56;95.25;102403.06;5038879;28;20064;-51
2021/12/13 03:58:52;;;;;;;24.83;8.73;;;;;;;2.58;95.22;102408.19;5042710;28;20040;-51
2021/12/13 04:01:23;;;;;;;27.42;9.60;;;;;;;2.61;95.36;102410.50;5039327;28;20021;-49
2021/12/13 04:03:52;;;;;;;25.27;9.25;;;;;;;2.64;95.04;102403.09;5036285;28;20528;-48
2021/12/13 04:06:21;;;;;;;28.52;9.52;;;;;;;2.67;94.88;102412.53;5041458;28;20040;-49
2021/12/13 04:08:50;;;;;;;29.50;10.68;;;;;;;2.68;94.82;102417.66;5038321;28;20108;-49
2021/12/13 04:11:16;;;;;;;31.17;10.15;;;;;;;2.70;94.78;102414.91;5038178;28;20138;-49
2021/12/13 04:13:50;;;;;;;30.10;10.18;;;;;;;2.71;95.24;102424.50;5040464;28;20567;-50
2021/12/13 04:16:34;;;;;;;29.90;10.68;;;;;;;2.67;95.19;102429.25;5040595;28;20029;-53
2021/12/13 04:19:10;;;;;;;26.92;9.98;;;;;;;2.65;95.23;102423.28;5040287;28;20056;-49
2021/12/13 04:21:58;;;;;;;23.40;9.35;;;;;;;2.65;95.29;102436.50;5038776;28;20077;-49
2021/12/13 04:24:34;;;;;;;28.05;9.23;;;;;;;2.66;94.86;102419.63;5038935;28;20032;-50
2021/12/13 04:27:07;;;;;;;29.02;10.98;;;;;;;2.70;95.54;102426.31;5039147;28;20112;-49
2021/12/13 04:29:38;;;;;;;29.92;10.32;;;;;;;2.70;95.29;102436.06;5042404;28;20025;-49
2021/12/13 04:32:31;;;;;;;22.83;8.77;;;;;;;2.67;95.11;102426.59;5042770;28;20710;-49
2021/12/13 04:35:03;;;;;;;25.58;8.90;;;;;;;2.71;95.62;102422.69;5036929;28;20108;-49
2021/12/13 04:37:34;;;;;;;26.83;8.68;;;;;;;2.70;95.63;102415.72;5036373;28;20033;-50
2021/12/13 04:40:08;;;;;;;30.60;10.90;;;;;;;2.72;95.42;102431.44;5040296;28;20039;-49
2021/12/13 04:42:34;;;;;;;29.43;10.83;;;;;;;2.73;95.73;102420.69;5035946;28;20674;-49
2021/12/13 04:45:03;;;;;;;28.33;9.30;;;;;;;2.76;95.41;102427.50;5038161;28;20106;-50
2021/12/13 04:47:57;;;;;;;23.48;9.88;;;;;;;2.73;94.78;102420.69;5037398;28;20032;-51
2021/12/13 04:50:34;;;;;;;26.95;9.82;;;;;;;2.78;95.41;102427.34;5038805;28;20025;-51
2021/12/13 04:53:00;;;;;;;28.08;10.23;;;;;;;2.80;95.54;102412.97;5035883;28;20868;-51
2021/12/13 04:55:34;;;;;;;32.25;9.88;;;;;;;2.79;95.15;102423.69;5041791;28;20025;-50
2021/12/13 04:58:03;;;;;;;24.85;9.90;;;;;;;2.78;95.38;102414.09;5038781;28;20036;-49
2021/12/13 05:00:37;;;;;;;21.98;8.73;;;;;;;2.80;94.45;102418.25;5038414;28;20382;-52
2021/12/13 05:03:05;;;;;;;22.20;8.50;;;;;;;2.81;94.98;102422.56;5037905;28;20056;-49
2021/12/13 05:05:34;;;;;;;22.05;8.13;;;;;;;2.84;94.86;102429.34;5037121;28;20507;-51
2021/12/13 05:08:00;;;;;;;32.53;10.30;;;;;;;2.84;95.23;102427.53;5039255;28;20074;-50
2021/12/13 05:10:26;;;;;;;22.98;10.43;;;;;;;2.82;95.55;102429.50;5036886;28;20040;-49
2021/12/13 05:13:05;;;;;;;25.63;10.15;;;;;;;2.80;95.57;102435.94;5036192;28;20024;-50
2021/12/13 05:15:33;;;;;;;30.00;10.48;;;;;;;2.82;95.54;102428.69;5052164;28;20020;-49
2021/12/13 05:18:04;;;;;;;22.77;8.50;;;;;;;2.80;95.32;102439.44;5039179;28;20504;-52
2021/12/13 05:20:35;;;;;;;20.55;8.90;;;;;;;2.81;95.22;102432.31;5038356;28;20350;-52
2021/12/13 05:23:20;;;;;;;26.02;9.82;;;;;;;2.81;94.93;102442.91;5037595;28;20564;-52
2021/12/13 05:25:56;;;;;;;19.60;9.02;;;;;;;2.86;94.80;102440.59;5039323;28;20053;-50
2021/12/13 05:28:27;;;;;;;20.23;8.57;;;;;;;2.87;95.10;102436.97;5039918;28;20062;-49
2021/12/13 05:31:00;;;;;;;23.88;8.88;;;;;;;2.90;94.75;102436.69;5034158;28;20017;-49
2021/12/13 05:33:32;;;;;;;22.23;8.73;;;;;;;2.93;95.03;102447.78;5039375;28;20261;-49
2021/12/13 05:36:01;;;;;;;23.75;8.77;;;;;;;2.96;94.64;102441.34;5033885;28;20037;-49
2021/12/13 05:38:32;;;;;;;19.38;7.95;;;;;;;2.93;94.35;102445.16;5042502;28;20374;-50
2021/12/13 05:41:01;;;;;;;20.17;7.78;;;;;;;2.95;94.37;102450.28;5033699;28;20029;-52
2021/12/13 05:43:48;;;;;;;21.90;9.48;;;;;;;2.96;94.38;102459.88;5033129;28;20029;-49
2021/12/13 05:46:48;;;;;;;17.05;8.13;;;;;;;2.92;94.27;102462.00;5033742;28;20082;-52
2021/12/13 05:49:21;;;;;;;20.20;8.18;;;;;;;2.95;94.13;102458.22;5035758;28;20063;-53
2021/12/13 05:51:52;;;;;;;17.13;8.88;;;;;;;2.95;94.03;102474.09;5039445;28;20025;-54
2021/12/13 05:54:26;;;;;;;22.52;8.45;;;;;;;2.96;94.41;102470.47;5041162;28;20323;-53
2021/12/13 05:56:58;;;;;;;20.27;8.43;;;;;;;2.95;94.79;102476.75;5039844;28;20029;-54
2021/12/13 05:59:26;;;;;;;20.55;7.72;;;;;;;2.95;94.56;102479.41;5040535;28;20033;-52
2021/12/13 06:01:58;;;;;;;19.02;8.20;;;;;;;2.95;94.53;102482.88;5036655;28;20026;-53
2021/12/13 06:04:32;;;;;;;17.60;8.25;;;;;;;2.94;94.16;102485.69;5037038;28;20029;-54
2021/12/13 06:06:58;;;;;;;18.20;7.70;;;;;;;2.97;94.34;102488.03;5039757;28;20044;-51
2021/12/13 06:09:48;;;;;;;16.35;7.47;;;;;;;2.91;94.46;102481.53;5040417;28;20115;-51
2021/12/13 06:12:27;;;;;;;16.35;7.10;;;;;;;2.93;94.28;102484.84;5040331;28;20032;-53
2021/12/13 06:14:54;;;;;;;16.92;6.68;;;;;;;2.93;94.48;102489.31;5039907;28;20263;-51
2021/12/13 06:17:30;;;;;;;15.55;6.60;;;;;;;2.92;94.50;102495.59;5042699;28;20032;-49
2021/12/13 06:20:10;;;;;;;14.88;6.85;;;;;;;2.92;94.44;102500.91;5045741;28;20408;-52
2021/12/13 06:22:37;;;;;;;15.65;7.35;;;;;;;2.94;94.36;102505.06;5046380;28;20134;-52
2021/12/13 06:25:13;;;;;;;15.07;6.25;;;;;;;2.93;94.16;102511.34;5046217;28;20025;-53
2021/12/13 06:27:42;;;;;;;13.05;5.80;;;;;;;2.96;94.43;102510.19;5042295;28;20029;-51
2021/12/13 06:30:19;;;;;;;11.20;6.50;;;;;;;2.95;93.96;102508.53;5042871;28;20551;-53
2021/12/13 06:32:50;;;;;;;15.25;6.40;;;;;;;2.98;93.85;102508.22;5038272;28;20484;-50
2021/12/13 06:35:47;;;;;;;12.25;6.50;;;;;;;2.95;93.56;102508.53;5045525;28;20554;-50
2021/12/13 06:38:19;;;;;;;15.18;6.82;;;;;;;2.97;93.56;102507.38;5040367;28;20116;-53
2021/12/13 06:40:47;;;;;;;16.02;6.85;;;;;;;3.01;93.41;102506.09;5045964;28;20389;-54
2021/12/13 06:43:43;;;;;;;16.20;6.95;;;;;;;3.00;93.54;102515.00;5044212;28;20033;-53
2021/12/13 06:46:20;;;;;;;14.93;6.60;;;;;;;2.98;93.69;102516.16;5043233;28;20025;-53
2021/12/13 06:49:09;;;;;;;15.15;6.57;;;;;;;2.98;94.15;102513.50;5037932;28;20099;-55
2021/12/13 06:51:41;;;;;;;14.35;6.57;;;;;;;2.96;93.83;102523.44;5045632;28;20025;-53
2021/12/13 06:54:20;;;;;;;13.45;5.57;;;;;;;2.99;93.65;102520.47;5040494;28;20370;-53
2021/12/13 06:56:54;;;;;;;14.10;6.70;;;;;;;3.00;93.27;102527.41;5043493;28;20116;-53
2021/12/13 06:59:20;;;;;;;12.50;5.63;;;;;;;3.02;93.41;102531.56;5044482;28;20037;-51
2021/12/13 07:01:58;;;;;;;15.32;6.30;;;;;;;3.00;93.24;102532.72;5046068;28;20060;-52
2021/12/13 07:04:24;;;;;;;14.13;6.15;;;;;;;3.04;93.47;102531.41;5044346;28;20424;-50
2021/12/13 07:06:50;;;;;;;13.85;6.43;;;;;;;3.03;93.23;102530.59;5042581;28;20176;-54
2021/12/13 07:09:21;;;;;;;13.32;5.88;;;;;;;3.00;93.13;102535.38;5044443;28;20056;-53
2021/12/13 07:11:51;;;;;;;11.95;6.53;;;;;;;2.99;93.09;102539.84;5045665;28;20051;-53
2021/12/13 07:14:20;;;;;;;12.25;5.53;;;;;;;2.99;93.75;102541.66;5044418;28;20199;-53
2021/12/13 07:16:53;;;;;;;12.45;5.93;;;;;;;2.98;93.75;102550.59;5046303;28;20040;-54
2021/12/13 07:19:23;;;;;;;13.07;5.80;;;;;;;2.99;93.80;102546.94;5044747;28;20029;-53
2021/12/13 07:21:59;;;;;;;10.88;5.25;;;;;;;3.02;93.41;102549.28;5043956;28;20024;-53
2021/12/13 07:24:42;;;;;;;12.70;6.25;;;;;;;3.04;93.03;102553.44;5037839;28;20205;-51
2021/12/13 07:27:16;;;;;;;15.60;6.28;;;;;;;3.06;92.90;102557.78;5044341;28;20029;-51
2021/12/13 07:29:53;;;;;;;14.30;6.53;;;;;;;3.06;92.98;102560.44;5042096;28;20055;-52
2021/12/13 07:32:25;;;;;;;13.35;6.68;;;;;;;3.10;93.13;102557.31;5044109;28;20056;-53
2021/12/13 07:35:02;;;;;;;9.95;5.20;;;;;;;3.09;92.75;102558.28;5045205;28;20184;-52
2021/12/13 07:37:34;;;;;;;12.70;6.03;;;;;;;3.11;92.58;102564.25;5043115;28;20119;-52
2021/12/13 07:40:27;;;;;;;12.68;5.95;;;;;;;3.11;92.76;102568.72;5043984;28;20492;-50
2021/12/13 07:43:05;;;;;;;11.48;5.57;;;;;;;3.13;92.70;102569.41;5042028;28;20036;-55
2021/12/13 07:45:47;;;;;;;10.98;5.97;;;;;;;3.17;92.48;102571.56;5045068;28;20021;-50
2021/12/13 07:48:26;;;;;;;19.75;8.38;;;;;;;3.20;92.87;102571.25;5042844;28;20496;-53
2021/12/13 07:51:01;;;;;;;21.10;8.73;;;;;;;3.23;93.86;102580.72;5042865;28;20025;-54
2021/12/13 07:53:28;;;;;;;14.02;6.65;;;;;;;3.23;93.84;102583.38;5044030;28;20040;-51
2021/12/13 07:55:54;;;;;;;20.40;9.48;;;;;;;3.22;93.80;102585.19;5044183;28;20028;-52
2021/12/13 07:58:37;;;;;;;17.25;8.52;;;;;;;3.26;93.45;102586.56;5043770;28;20400;-52
2021/12/13 08:01:15;;;;;;;19.40;10.30;;;;;;;3.29;92.88;102601.31;5044294;28;20098;-55
2021/12/13 08:03:49;;;;;;;20.33;9.13;;;;;;;3.33;92.47;102597.34;5041303;28;20114;-51
2021/12/13 08:06:15;;;;;;;22.80;9.98;;;;;;;3.34;92.63;102597.19;5041703;28;20029;-53
2021/12/13 08:08:47;;;;;;;19.23;9.50;;;;;;;3.37;92.50;102598.69;5044912;28;20028;-53
2021/12/13 08:11:13;;;;;;;23.38;12.38;;;;;;;3.41;92.08;102589.47;5043201;28;20441;-53
2021/12/13 08:13:39;;;;;;;24.50;12.57;;;;;;;3.41;92.31;102594.78;5044482;28;20112;-51
2021/12/13 08:16:09;;;;;;;30.35;13.57;;;;;;;3.46;93.29;102591.66;5042286;28;20291;-53
2021/12/13 08:18:43;;;;;;;31.65;11.63;;;;;;;3.51;94.56;102592.00;5037007;28;20047;-54
2021/12/13 08:21:24;;;;;;;28.83;11.90;;;;;;;3.52;95.67;102593.66;5036600;28;20171;-52
2021/12/13 08:24:03;;;;;;;25.45;11.60;;;;;;;3.57;96.22;102594.03;5043723;28;20512;-52
2021/12/13 08:26:33;;;;;;;35.40;12.18;;;;;;;3.65;95.20;102596.75;5042415;28;20036;-53
2021/12/13 08:29:02;;;;;;;29.67;11.07;;;;;;;3.66;95.76;102602.88;5039181;28;20058;-51
2021/12/13 08:31:33;;;;;;;27.10;10.30;;;;;;;3.68;95.10;102606.19;5041154;28;20127;-54
2021/12/13 08:34:03;;;;;;;28.27;10.75;;;;;;;3.70;96.11;102609.50;5041914;28;20048;-53
2021/12/13 08:36:36;;;;;;;33.05;11.73;;;;;;;3.72;95.52;102613.66;5035704;28;20048;-54
2021/12/13 08:39:14;;;;;;;32.05;10.43;;;;;;;3.76;95.56;102617.66;5034067;28;20025;-54
2021/12/13 08:41:51;;;;;;;35.92;10.93;;;;;;;3.82;95.39;102614.41;5039380;28;20049;-53
2021/12/13 08:44:26;;;;;;;33.35;12.63;;;;;;;3.81;95.31;102623.34;5036638;28;20033;-51
2021/12/13 08:46:51;;;;;;;28.77;11.35;;;;;;;3.85;97.00;102613.25;5036241;28;20032;-54
2021/12/13 08:49:35;;;;;;;24.70;9.25;;;;;;;3.86;96.43;102607.78;5038398;28;20033;-52
2021/12/13 08:52:06;;;;;;;23.10;10.00;;;;;;;3.90;96.45;102619.72;5037644;28;20115;-53
2021/12/13 08:55:13;;;;;;;30.65;10.32;;;;;;;3.94;96.50;102612.28;5039272;28;20373;-53
2021/12/13 08:58:00;;;;;;;22.27;8.95;;;;;;;3.94;96.13;102621.06;5038954;28;20385;-53
2021/12/13 09:00:41;;;;;;;22.58;9.43;;;;;;;4.03;96.93;102629.91;5040601;28;20621;-52
2021/12/13 09:03:34;;;;;;;25.10;10.00;;;;;;;4.06;96.53;102631.41;5036497;28;20094;-53
2021/12/13 09:06:08;;;;;;;26.98;11.15;;;;;;;4.09;96.35;102626.59;5034677;28;20423;-50
2021/12/13 09:08:36;;;;;;;28.60;10.80;;;;;;;4.12;97.90;102633.41;5040649;28;20520;-50
2021/12/13 09:11:30;;;;;;;26.17;10.07;;;;;;;4.14;97.93;102624.31;5040992;28;20385;-52
2021/12/13 09:14:13;;;;;;;30.35;11.15;;;;;;;4.22;98.54;102636.78;5038527;28;20066;-52
2021/12/13 09:19:36;;;;;;;30.23;10.82;;;;;;;4.26;98.00;102638.13;5025549;28;20056;-73
2021/12/13 09:22:15;;;;;;;31.52;11.55;;;;;;;4.30;97.69;102634.16;5026947;28;20405;-73
2021/12/13 09:24:55;;;;;;;36.03;13.05;;;;;;;4.31;97.95;102635.84;5034387;28;20021;-74
2021/12/13 09:27:30;;;;;;;25.75;10.75;;;;;;;4.35;98.24;102634.53;5027802;28;20044;-73
2021/12/13 09:30:23;;;;;;;30.45;10.45;;;;;;;4.38;98.13;102631.53;5014436;28;20030;-73
2021/12/13 09:33:14;;;;;;;33.83;10.25;;;;;;;4.49;97.96;102628.59;5012054;28;20060;-73
2021/12/13 09:35:45;;;;;;;34.10;11.82;;;;;;;4.55;99.24;102625.28;5001167;28;20033;-73
2021/12/13 09:38:17;;;;;;;34.22;10.57;;;;;;;4.60;99.37;102622.13;4994764;28;21865;-73
2021/12/13 09:40:47;;;;;;;35.42;9.98;;;;;;;4.66;98.70;102620.63;4994223;28;20535;-73
2021/12/13 09:43:13;;;;;;;33.92;11.13;;;;;;;4.68;98.41;102622.16;4999803;28;20029;-73
2021/12/13 09:45:48;;;;;;;30.73;9.60;;;;;;;4.68;98.66;102622.16;4996262;28;20607;-73
2021/12/13 09:48:19;;;;;;;30.30;9.85;;;;;;;4.67;98.19;102624.94;4998363;28;20107;-73
2021/12/13 09:50:48;;;;;;;29.50;9.88;;;;;;;4.72;98.55;102627.97;5016062;28;20079;-73
2021/12/13 09:53:15;;;;;;;25.08;10.50;;;;;;;4.72;98.38;102627.97;5012575;28;20030;-73
2021/12/13 09:55:47;;;;;;;27.23;9.52;;;;;;;4.72;97.86;102625.31;5023122;28;20056;-74
2021/12/13 09:58:24;;;;;;;24.77;9.93;;;;;;;4.70;98.56;102636.09;5013430;28;20929;-73
2021/12/13 10:01:16;;;;;;;21.90;8.65;;;;;;;4.76;97.96;102632.78;5018369;28;20029;-73
2021/12/13 10:03:51;;;;;;;24.77;8.68;;;;;;;4.75;97.67;102643.56;5008628;28;20028;-73
2021/12/13 10:06:22;;;;;;;24.67;9.50;;;;;;;4.79;97.46;102636.94;5016979;28;20029;-73
2021/12/13 10:09:01;;;;;;;23.55;8.38;;;;;;;4.78;97.76;102632.63;5014334;28;20036;-73
2021/12/13 10:11:37;;;;;;;27.20;9.55;;;;;;;4.80;98.21;102639.41;5011434;28;20034;-73
2021/12/13 10:14:06;;;;;;;29.42;9.95;;;;;;;4.83;98.22;102632.94;4997524;28;20049;-73
2021/12/13 10:16:34;;;;;;;28.42;10.43;;;;;;;4.89;99.46;102636.78;5010692;28;20460;-74
2021/12/13 10:19:03;;;;;;;28.05;10.30;;;;;;;4.98;98.20;102638.44;4995003;28;20061;-74
2021/12/13 10:21:40;;;;;;;28.02;9.48;;;;;;;4.97;98.23;102632.31;5001486;28;20640;-74
2021/12/13 10:24:15;;;;;;;26.00;10.70;;;;;;;5.03;98.16;102639.63;5002592;28;20036;-73
2021/12/13 10:26:43;;;;;;;26.50;9.77;;;;;;;5.06;98.54;102636.66;5011776;28;20121;-74
2021/12/13 10:29:12;;;;;;;28.40;11.07;;;;;;;5.12;98.66;102629.81;5012486;28;20090;-74
2021/12/13 10:31:47;;;;;;;34.53;11.95;;;;;;;5.18;98.51;102631.81;5017543;28;20021;-74
2021/12/13 10:34:19;;;;;;;30.73;11.00;;;;;;;5.16;98.61;102625.84;4995532;28;20120;-73
2021/12/13 10:37:11;;;;;;;27.85;10.18;;;;;;;5.15;98.50;102630.31;5011498;28;20029;-74
2021/12/13 10:39:50;;;;;;;29.67;10.80;;;;;;;5.20;98.19;102631.63;4999623;28;20128;-74
2021/12/13 10:42:24;;;;;;;30.25;12.70;;;;;;;5.21;98.09;102634.16;5011036;28;20033;-74
2021/12/13 10:44:50;;;;;;;31.35;10.68;;;;;;;5.23;97.89;102629.50;5011794;28;20052;-74
2021/12/13 10:47:31;;;;;;;30.98;10.80;;;;;;;5.27;98.62;102622.03;5000710;28;20076;-74
2021/12/13 10:50:00;;;;;;;27.02;9.82;;;;;;;5.26;98.97;102628.34;5004868;28;20034;-74
2021/12/13 10:52:30;;;;;;;27.05;10.07;;;;;;;5.32;98.54;102625.00;5010850;28;20086;-74
2021/12/13 10:55:00;;;;;;;28.23;11.18;;;;;;;5.31;98.49;102626.84;5011386;28;20457;-74
2021/12/13 10:57:34;;;;;;;24.55;10.10;;;;;;;5.33;98.22;102621.34;5011622;28;20029;-74
2021/12/13 11:00:01;;;;;;;26.20;10.38;;;;;;;5.32;97.71;102614.38;5012093;28;20029;-74
2021/12/13 11:02:32;;;;;;;28.40;10.57;;;;;;;5.35;98.30;102614.03;5011736;28;20845;-74
2021/12/13 11:05:04;;;;;;;29.95;10.55;;;;;;;5.36;98.73;102611.19;5013458;28;20025;-74
2021/12/13 11:07:31;;;;;;;32.22;11.25;;;;;;;5.41;99.19;102608.06;5010373;28;20053;-74
2021/12/13 11:09:59;;;;;;;25.35;10.63;;;;;;;5.43;98.27;102612.22;4993175;28;20129;-74
2021/12/13 11:12:31;;;;;;;31.42;11.40;;;;;;;5.44;98.49;102615.69;5004008;28;20037;-74
2021/12/13 11:15:02;;;;;;;28.58;10.82;;;;;;;5.45;98.26;102612.03;5003645;28;20038;-74
2021/12/13 11:17:32;;;;;;;28.45;10.77;;;;;;;5.46;98.10;102617.19;5013054;28;20029;-74
2021/12/13 11:20:04;;;;;;;30.10;11.13;;;;;;;5.48;98.14;102609.03;4997193;28;20044;-74
2021/12/13 11:22:32;;;;;;;25.80;9.85;;;;;;;5.49;98.36;102609.88;4992825;28;20692;-74
2021/12/13 11:25:10;;;;;;;25.85;12.13;;;;;;;5.49;97.54;102602.72;5015097;28;20033;-74
2021/12/13 11:27:36;;;;;;;26.98;11.57;;;;;;;5.54;98.39;102603.03;5011976;28;20091;-73
2021/12/13 11:30:08;;;;;;;32.10;12.23;;;;;;;5.60;98.30;102607.69;5010174;28;20431;-74
2021/12/13 11:32:39;;;;;;;38.60;12.82;;;;;;;5.64;98.29;102600.19;5010822;28;20096;-74
2021/12/13 11:35:11;;;;;;;49.67;13.98;;;;;;;5.67;98.52;102603.34;5015632;28;20025;-73
2021/12/13 11:37:55;;;;;;;41.90;12.75;;;;;;;5.65;98.38;102610.66;5019845;28;20113;-73
2021/12/13 11:41:00;;;;;;;33.15;11.40;;;;;;;5.63;98.46;102603.84;5002821;28;20125;-73
2021/12/13 11:44:03;;;;;;;39.55;11.75;;;;;;;5.62;98.05;102600.38;4990040;28;20096;-73
2021/12/13 11:46:37;;;;;;;43.47;12.68;;;;;;;5.66;97.86;102595.53;4996313;28;20066;-73
2021/12/13 11:49:24;;;;;;;50.28;12.98;;;;;;;5.68;97.71;102597.03;5003184;28;20041;-73
2021/12/13 11:52:25;;;;;;;44.28;10.82;;;;;;;5.70;97.90;102589.69;5009596;28;20017;-74
2021/12/13 11:55:09;;;;;;;39.35;11.07;;;;;;;5.72;97.64;102595.66;5012574;28;20745;-73
2021/12/13 11:58:08;;;;;;;40.85;10.77;;;;;;;5.72;97.44;102595.66;5013673;28;20619;-73
2021/12/13 12:01:19;;;;;;;40.35;11.23;;;;;;;5.70;97.92;102592.34;5004131;28;20029;-73
2021/12/13 12:04:41;;;;;;;36.75;10.25;;;;;;;5.74;97.60;102601.69;4994179;28;20079;-74